Messwerte Cold Bay

Temperatur

Temperatur
°C
1594321200 11.00 11.00 9
1594324800 12.00 12.00 9
1594328400 13.00 13.00 10
1594332000 14.00 14.00 10
1594335600 15.00 15.00 11
1594339200 16.00 16.00 11
1594342800 17.00 17.00 11
1594346400 18.00 18.00 11
1594350000 19.00 19.00
1594353600 20.00 20.00 11
1594357200 21.00 21.00 10
1594360800 22.00 22.00
1594364400 23.00 23.00 9
1594368000 0.00 0.00 9
1594371600 1.00 1.00 9
1594375200 2.00 2.00 9
1594378800 3.00 3.00 9
1594382400 4.00 4.00 9
1594386000 5.00 5.00 9
1594389600 6.00 6.00 9
1594393200 7.00 7.00 8
1594396800 8.00 8.00 9
1594400400 9.00 9.00 9
1594404000 10.00 10.00 9

Aktuellste Messwerte

Wettercharakter
Wetter: bedeckt
Temperatur
9 °C
Feuchtigkeit
93 %
Wind
20 km/hWindrichtung: Nord
Luftdruck
1017 hPa
Messzeit: 10. Juli 2020, 12.00Datenquelle: METAR

Weitere Messstationen in der Nähe

Messstation Temperatur Entfernung
King Cove 12 °C 29 km
Nelson Lagoon 9 °C 132 km
Sand Point 14 °C 139 km
Unalaska 8 °C 286 km
Port Heiden 10 °C 319 km
Cape Newenham 10 °C 385 km
Pilot Point 10 °C 412 km

Wind

Windrichtung Böen Mittelwind
° km/h km/h
1594321200 11.00 10.00 - 11.00 320° 20
1594324800 12.00 11.00 - 12.00 320° 20
1594328400 13.00 12.00 - 13.00 320° 20
1594332000 14.00 13.00 - 14.00 320° 20
1594335600 15.00 14.00 - 15.00 320° 20
1594339200 16.00 15.00 - 16.00 310° 15
1594342800 17.00 16.00 - 17.00 320° 20
1594346400 18.00 17.00 - 18.00 320° 15
1594350000 19.00 18.00 - 19.00
1594353600 20.00 19.00 - 20.00 300° 20
1594357200 21.00 20.00 - 21.00 300° 20
1594360800 22.00 21.00 - 22.00
1594364400 23.00 22.00 - 23.00 300° 20
1594368000 0.00 23.00 - 0.00 290° 15
1594371600 1.00 0.00 - 1.00 300° 15
1594375200 2.00 1.00 - 2.00 310° 20
1594378800 3.00 2.00 - 3.00 300° 10
1594382400 4.00 3.00 - 4.00 310° 10
1594386000 5.00 4.00 - 5.00 310° 15
1594389600 6.00 5.00 - 6.00 330° 15
1594393200 7.00 6.00 - 7.00 320° 15
1594396800 8.00 7.00 - 8.00 330° 15
1594400400 9.00 8.00 - 9.00 310° 15
1594404000 10.00 9.00 - 10.00 320° 15

Ihre Wetterstation

Fehlt Ihre Wetterstation auf unserem Portal?

Schreiben Sie an network@meteonews.ch

Klima

Wann ist es am wärmsten? Wann regnet es am wenigsten? Unsere Klimadaten geben Auskunft.